Time;durP1;ratioP1;P1;durP2;ratioP2;P2;SDS_P1;SDS_P2;PMS_P1;PMS_P2;Temp;Humidity;BMP_temperature;BMP_pressure;BME280_temperature;BME280_humidity;BME280_pressure;Samples;Min_cycle;Max_cycle;Signal;HPM_P1;HPM_P2
2023/01/28 00:00:07;;;;;;;7.97;4.47;;;6.70;64.50;;;;;;5094862;28;20126;-68
2023/01/28 00:02:34;;;;;;;8.70;5.13;;;6.70;64.40;;;;;;5098193;28;20116;-68
2023/01/28 00:05:00;;;;;;;7.43;4.10;;;6.70;64.40;;;;;;5095086;28;20054;-68
2023/01/28 00:07:26;;;;;;;9.87;4.87;;;6.70;64.40;;;;;;5098609;28;20024;-67
2023/01/28 00:09:52;;;;;;;8.30;4.73;;;6.70;64.40;;;;;;5095712;28;20459;-68
2023/01/28 00:12:18;;;;;;;8.10;4.70;;;6.70;64.40;;;;;;5094739;28;20020;-68
2023/01/28 00:14:45;;;;;;;8.67;4.87;;;6.70;64.30;;;;;;5094739;28;20039;-67
2023/01/28 00:17:11;;;;;;;8.27;4.70;;;6.70;64.30;;;;;;5104962;28;20028;-67
2023/01/28 00:19:37;;;;;;;8.33;4.30;;;6.70;64.30;;;;;;5105801;28;20036;-68
2023/01/28 00:22:03;;;;;;;8.03;4.90;;;6.70;64.20;;;;;;5110937;27;20024;-67
2023/01/28 00:24:29;;;;;;;7.90;4.50;;;6.60;64.20;;;;;;5111729;28;20039;-68
2023/01/28 00:26:55;;;;;;;8.60;4.87;;;6.60;64.20;;;;;;5100010;27;20353;-68
2023/01/28 00:29:21;;;;;;;8.77;5.03;;;6.70;64.30;;;;;;5106222;27;20053;-68
2023/01/28 00:31:47;;;;;;;7.90;4.87;;;6.70;64.40;;;;;;5099881;27;20036;-68
2023/01/28 00:34:12;;;;;;;8.27;4.80;;;6.70;64.30;;;;;;5100830;27;20114;-68
2023/01/28 00:36:41;;;;;;;8.47;4.47;;;6.70;64.30;;;;;;5089968;28;20024;-68
2023/01/28 00:39:10;;;;;;;8.50;4.60;;;6.70;64.40;;;;;;5109732;27;20023;-68
2023/01/28 00:41:36;;;;;;;8.23;4.65;;;6.70;64.40;;;;;;5103473;27;20023;-68
2023/01/28 00:44:02;;;;;;;8.80;4.90;;;6.70;64.40;;;;;;5117524;28;20038;-68
2023/01/28 00:46:28;;;;;;;7.97;4.63;;;6.70;64.40;;;;;;5098621;28;20032;-68
2023/01/28 00:48:54;;;;;;;8.13;4.40;;;6.70;64.50;;;;;;5106959;28;20100;-68
2023/01/28 00:51:20;;;;;;;8.60;4.77;;;6.70;64.60;;;;;;5115451;28;20027;-68
2023/01/28 00:53:48;;;;;;;9.50;5.30;;;6.70;64.70;;;;;;5117543;28;20102;-68
2023/01/28 00:56:16;;;;;;;9.47;5.17;;;6.70;64.70;;;;;;5115105;28;20630;-68
2023/01/28 00:58:44;;;;;;;8.63;5.00;;;6.70;64.80;;;;;;5115707;28;20024;-68
2023/01/28 01:01:14;;;;;;;9.37;5.57;;;6.70;64.90;;;;;;5112200;28;20356;-68
2023/01/28 01:03:41;;;;;;;9.07;5.13;;;6.70;65.10;;;;;;5094386;28;20096;-68
2023/01/28 01:06:08;;;;;;;11.13;5.67;;;6.70;65.10;;;;;;5085076;28;20066;-68
2023/01/28 01:08:34;;;;;;;8.47;5.00;;;6.70;65.20;;;;;;5115193;28;20051;-68
2023/01/28 01:11:03;;;;;;;10.27;6.00;;;6.60;65.30;;;;;;5111972;28;20011;-68
2023/01/28 01:13:33;;;;;;;9.70;5.50;;;6.70;65.40;;;;;;5111389;28;20025;-68
2023/01/28 01:16:15;;;;;;;9.93;5.53;;;6.60;65.40;;;;;;5114999;28;20118;-69
2023/01/28 01:18:41;;;;;;;;;;;6.60;65.40;;;;;;5125108;27;20080;-68
2023/01/28 01:21:19;;;;;;;8.57;4.83;;;6.60;65.50;;;;;;5109021;28;19908;-68
2023/01/28 01:23:45;;;;;;;8.80;5.10;;;6.60;65.50;;;;;;5100721;28;20036;-68
2023/01/28 01:26:12;;;;;;;9.73;5.53;;;6.60;65.60;;;;;;5098066;28;20463;-68
2023/01/28 01:28:38;;;;;;;9.53;5.80;;;6.60;65.70;;;;;;5116124;28;20031;-68
2023/01/28 01:31:07;;;;;;;9.50;5.27;;;6.60;65.70;;;;;;5110616;28;20495;-69
2023/01/28 01:33:33;;;;;;;8.93;5.30;;;6.60;65.70;;;;;;5107378;28;20027;-68
2023/01/28 01:35:59;;;;;;;9.37;5.43;;;6.60;65.70;;;;;;5115610;28;20024;-69
2023/01/28 01:38:26;;;;;;;9.37;5.27;;;6.60;65.70;;;;;;5131161;27;20106;-68
2023/01/28 01:40:52;;;;;;;9.20;5.50;;;6.60;65.60;;;;;;5116638;28;20031;-68
2023/01/28 01:43:19;;;;;;;9.70;5.67;;;6.60;65.60;;;;;;5113848;28;20118;-68
2023/01/28 01:45:56;;;;;;;10.03;5.73;;;6.60;65.60;;;;;;5115498;28;20102;-69
2023/01/28 01:48:30;;;;;;;10.97;5.00;;;6.50;65.50;;;;;;5110888;28;20436;-68
2023/01/28 01:51:09;;;;;;;8.53;4.70;;;6.50;65.50;;;;;;5116573;28;20043;-68
2023/01/28 01:53:39;;;;;;;9.40;5.23;;;6.50;65.40;;;;;;5103299;28;20508;-68
2023/01/28 01:56:09;;;;;;;8.63;5.03;;;6.50;65.30;;;;;;5110031;28;20043;-68
2023/01/28 01:58:38;;;;;;;8.20;4.33;;;6.50;65.30;;;;;;5108479;28;20027;-68
2023/01/28 02:01:06;;;;;;;7.93;4.20;;;6.50;65.30;;;;;;5097461;28;20057;-68
2023/01/28 02:03:50;;;;;;;8.93;5.13;;;6.50;65.30;;;;;;5115185;28;20031;-68
2023/01/28 02:06:16;;;;;;;9.10;5.40;;;6.50;65.10;;;;;;5115670;28;20495;-68
2023/01/28 02:08:43;;;;;;;8.00;4.43;;;6.50;65.10;;;;;;5113008;28;20016;-68
2023/01/28 02:11:10;;;;;;;8.00;4.60;;;6.50;65.00;;;;;;5114490;28;20020;-68
2023/01/28 02:13:43;;;;;;;7.97;4.23;;;6.50;64.90;;;;;;5113230;28;20111;-67
2023/01/28 02:16:10;;;;;;;8.40;4.73;;;6.50;64.80;;;;;;5115106;28;20123;-68
2023/01/28 02:18:37;;;;;;;8.30;4.53;;;6.50;64.70;;;;;;5112318;28;20487;-68
2023/01/28 02:21:18;;;;;;;7.70;4.60;;;6.50;64.60;;;;;;5106280;28;20031;-68
2023/01/28 02:24:04;;;;;;;9.77;5.10;;;6.50;64.40;;;;;;5110754;28;20040;-68
2023/01/28 02:26:54;;;;;;;7.77;4.10;;;6.50;64.40;;;;;;5100970;28;20379;-67
2023/01/28 02:29:29;;;;;;;8.67;4.60;;;6.50;64.50;;;;;;5112520;28;20024;-67
2023/01/28 02:32:27;;;;;;;9.23;4.93;;;6.40;64.40;;;;;;5112733;28;20389;-68
2023/01/28 02:35:00;;;;;;;8.30;4.70;;;6.50;64.50;;;;;;5097684;28;20044;-68
2023/01/28 02:37:57;;;;;;;8.47;4.77;;;6.40;64.50;;;;;;5113784;28;20027;-67
2023/01/28 02:40:33;;;;;;;10.40;5.43;;;6.40;64.50;;;;;;5109023;28;20451;-67
2023/01/28 02:42:59;;;;;;;10.20;5.73;;;6.40;64.50;;;;;;5092590;28;20119;-68
2023/01/28 02:48:19;;;;;;;11.18;6.50;;;6.40;64.60;;;;;;5110065;28;20031;-67
2023/01/28 02:51:04;;;;;;;10.60;6.57;;;6.40;64.70;;;;;;5112108;28;20383;-67
2023/01/28 02:53:42;;;;;;;10.57;5.97;;;6.40;64.80;;;;;;5112294;28;20085;-68
2023/01/28 02:56:08;;;;;;;10.20;5.83;;;6.40;64.80;;;;;;5114242;28;20038;-68
2023/01/28 02:59:29;;;;;;;11.77;6.80;;;6.40;64.80;;;;;;5113344;28;20023;-68
2023/01/28 03:01:49;;;;;;;11.87;6.57;;;6.40;64.90;;;;;;5107471;28;20057;-68
2023/01/28 03:04:32;;;;;;;13.90;7.47;;;6.40;65.00;;;;;;5102540;28;20026;-67
2023/01/28 03:07:05;;;;;;;10.88;6.45;;;6.40;65.00;;;;;;5114002;28;20468;-67
2023/01/28 03:09:32;;;;;;;11.47;6.70;;;6.40;65.10;;;;;;5113865;28;20027;-68
2023/01/28 03:37:36;;;;;;;10.90;5.67;;;6.30;65.20;;;;;;5095219;27;20024;-68
2023/01/28 03:40:10;;;;;;;11.17;6.40;;;6.30;65.20;;;;;;5104612;28;20147;-68
2023/01/28 03:42:36;;;;;;;13.07;7.77;;;6.20;65.20;;;;;;5079664;28;20089;-67
2023/01/28 03:45:12;;;;;;;11.97;6.50;;;6.30;65.20;;;;;;5102528;28;20031;-67
2023/01/28 03:47:39;;;;;;;11.13;6.57;;;6.20;65.20;;;;;;5098174;27;20043;-67
2023/01/28 03:50:07;;;;;;;13.17;7.20;;;6.20;65.30;;;;;;5101588;28;20391;-67
2023/01/28 03:52:45;;;;;;;13.07;7.53;;;6.20;65.20;;;;;;5095729;28;20023;-68
2023/01/28 03:55:24;;;;;;;12.33;7.27;;;6.20;65.20;;;;;;5103633;27;20064;-67
2023/01/28 03:57:51;;;;;;;11.43;7.03;;;6.20;65.10;;;;;;5122490;27;20339;-67
2023/01/28 04:00:19;;;;;;;10.57;6.27;;;6.20;65.10;;;;;;5112438;28;20035;-67
2023/01/28 04:02:45;;;;;;;11.67;7.17;;;6.20;65.10;;;;;;5099581;28;20061;-67
2023/01/28 04:05:18;;;;;;;11.83;6.77;;;6.20;65.10;;;;;;5095749;28;20559;-68
2023/01/28 04:07:46;;;;;;;10.43;6.50;;;6.20;65.10;;;;;;5105163;28;20359;-67
2023/01/28 04:10:18;;;;;;;11.75;6.65;;;6.20;65.10;;;;;;5099970;28;20106;-68
2023/01/28 04:12:53;;;;;;;12.10;7.20;;;6.20;65.00;;;;;;5100855;28;20024;-67
2023/01/28 04:15:19;;;;;;;10.83;6.57;;;6.20;65.00;;;;;;5097514;28;20111;-68
2023/01/28 04:17:47;;;;;;;12.50;7.10;;;6.20;65.00;;;;;;5099441;28;20114;-68
2023/01/28 04:20:19;;;;;;;10.37;6.43;;;6.20;64.80;;;;;;5100069;28;20341;-68
2023/01/28 04:22:45;;;;;;;10.83;6.43;;;6.20;64.70;;;;;;5097019;28;20020;-68
2023/01/28 04:25:12;;;;;;;10.83;6.50;;;6.20;64.60;;;;;;5094481;28;20089;-67
2023/01/28 04:27:38;;;;;;;11.23;6.57;;;6.10;64.50;;;;;;5102305;28;20107;-67
2023/01/28 04:30:14;;;;;;;11.10;6.30;;;6.10;64.50;;;;;;5095578;27;20024;-67
2023/01/28 04:32:46;;;;;;;11.00;6.60;;;6.10;64.50;;;;;;5105591;28;20024;-67
2023/01/28 04:35:33;;;;;;;10.10;6.10;;;6.10;64.40;;;;;;5097075;28;20428;-67
2023/01/28 04:38:15;;;;;;;10.77;6.20;;;6.10;64.30;;;;;;5100469;28;20507;-67
2023/01/28 04:40:59;;;;;;;10.07;6.17;;;6.10;64.30;;;;;;5101236;28;20092;-68
2023/01/28 04:43:29;;;;;;;10.10;6.03;;;6.10;64.30;;;;;;5118251;28;20023;-67
2023/01/28 04:46:17;;;;;;;9.60;6.10;;;6.10;64.30;;;;;;5106265;28;20025;-67
2023/01/28 04:49:02;;;;;;;10.83;6.20;;;6.00;64.20;;;;;;5110328;28;20034;-68
2023/01/28 04:51:43;;;;;;;10.70;6.28;;;6.00;64.00;;;;;;5110898;28;20027;-67
2023/01/28 04:54:27;;;;;;;11.60;6.67;;;6.00;63.90;;;;;;5115718;28;20054;-67
2023/01/28 04:56:57;;;;;;;10.47;5.73;;;6.00;63.90;;;;;;5108806;28;20058;-67
2023/01/28 04:59:23;;;;;;;10.97;6.00;;;6.00;63.90;;;;;;5113929;28;20017;-68
2023/01/28 05:01:50;;;;;;;10.17;6.27;;;6.00;63.80;;;;;;5112645;28;20055;-67
2023/01/28 05:04:16;;;;;;;10.10;5.77;;;6.00;63.80;;;;;;5101005;27;20043;-67
2023/01/28 05:06:42;;;;;;;12.40;6.80;;;6.00;63.80;;;;;;5104605;28;20036;-68
2023/01/28 05:09:14;;;;;;;10.40;5.80;;;6.00;63.80;;;;;;5120113;27;20462;-68
2023/01/28 05:11:40;;;;;;;10.57;6.17;;;6.00;63.70;;;;;;5088483;28;20023;-67
2023/01/28 05:14:07;;;;;;;10.47;6.10;;;6.00;63.80;;;;;;5109925;28;20395;-68
2023/01/28 05:16:51;;;;;;;10.20;5.87;;;6.00;63.70;;;;;;5097878;28;20084;-68
2023/01/28 05:19:17;;;;;;;12.07;6.33;;;6.00;63.70;;;;;;5115000;28;20127;-67
2023/01/28 05:21:45;;;;;;;11.93;6.93;;;6.00;63.70;;;;;;5115885;28;20085;-68
2023/01/28 05:24:24;;;;;;;11.13;6.53;;;5.90;63.60;;;;;;5106466;28;20082;-68
2023/01/28 05:26:49;;;;;;;11.40;6.57;;;6.00;63.80;;;;;;5110084;28;20459;-68
2023/01/28 05:29:15;;;;;;;11.30;6.73;;;6.00;63.60;;;;;;5114901;28;20015;-68
2023/01/28 05:31:41;;;;;;;10.97;6.30;;;5.90;63.50;;;;;;5115707;28;20019;-67
2023/01/28 05:34:07;;;;;;;11.77;6.60;;;5.90;63.40;;;;;;5094600;28;20020;-68
2023/01/28 05:36:33;;;;;;;11.17;6.63;;;5.90;63.30;;;;;;5096981;28;20093;-67
2023/01/28 05:39:05;;;;;;;11.18;5.90;;;5.90;63.20;;;;;;5098552;28;20439;-67
2023/01/28 05:41:31;;;;;;;11.13;6.50;;;5.90;63.10;;;;;;5098572;28;20024;-67
2023/01/28 05:44:00;;;;;;;11.07;6.43;;;5.90;63.00;;;;;;5111975;28;20031;-67
2023/01/28 05:46:52;;;;;;;11.23;6.25;;;5.90;62.90;;;;;;5110940;28;20036;-68
2023/01/28 05:49:38;;;;;;;11.70;6.87;;;5.80;62.90;;;;;;5114283;28;20039;-67
2023/01/28 05:52:26;;;;;;;11.60;6.40;;;5.80;62.90;;;;;;5103973;28;20024;-68
2023/01/28 05:54:51;;;;;;;12.83;6.93;;;5.80;62.90;;;;;;5114219;28;20115;-67
2023/01/28 05:57:17;;;;;;;11.97;6.87;;;5.80;62.80;;;;;;5097246;28;20015;-68
2023/01/28 05:59:43;;;;;;;12.43;7.37;;;5.80;62.80;;;;;;5114402;28;20027;-68
2023/01/28 06:02:09;;;;;;;11.23;6.23;;;5.80;62.80;;;;;;5115088;28;20024;-68
2023/01/28 06:04:35;;;;;;;12.17;7.00;;;5.80;62.80;;;;;;5113940;28;20019;-67
2023/01/28 06:07:01;;;;;;;11.60;6.40;;;5.80;62.60;;;;;;5089258;28;20032;-67
2023/01/28 06:09:26;;;;;;;11.37;6.57;;;5.80;62.60;;;;;;5114788;28;20027;-67
2023/01/28 06:11:52;;;;;;;12.50;6.90;;;5.80;62.50;;;;;;5093798;28;20032;-67
2023/01/28 06:14:18;;;;;;;12.17;7.20;;;5.80;62.40;;;;;;5131404;27;20015;-67
2023/01/28 06:17:04;;;;;;;12.37;6.90;;;5.80;62.30;;;;;;5103824;28;20042;-67
2023/01/28 06:19:48;;;;;;;12.40;7.20;;;5.70;62.20;;;;;;5113017;28;20482;-67
2023/01/28 06:22:15;;;;;;;13.37;7.10;;;5.70;62.20;;;;;;5114571;28;20118;-67
2023/01/28 06:24:41;;;;;;;11.73;6.77;;;5.70;62.10;;;;;;5108540;28;20169;-67
2023/01/28 06:27:06;;;;;;;12.20;7.23;;;5.70;62.00;;;;;;5109759;28;20036;-67
2023/01/28 06:29:32;;;;;;;12.77;7.17;;;5.70;62.00;;;;;;5108503;28;20028;-67
2023/01/28 06:31:58;;;;;;;11.63;6.80;;;5.70;61.90;;;;;;5104535;28;20116;-68
2023/01/28 06:34:24;;;;;;;12.63;6.83;;;5.70;62.00;;;;;;5115295;28;20024;-67
2023/01/28 06:36:52;;;;;;;12.90;7.10;;;5.60;61.90;;;;;;5110003;28;20168;-67
2023/01/28 06:39:20;;;;;;;12.23;6.90;;;5.70;61.90;;;;;;5115367;28;20055;-67
2023/01/28 06:41:46;;;;;;;13.33;6.93;;;5.60;61.90;;;;;;5109678;28;20030;-67
2023/01/28 06:44:12;;;;;;;11.33;7.20;;;5.60;62.00;;;;;;5114869;28;20082;-67
2023/01/28 06:46:38;;;;;;;12.53;7.40;;;5.60;62.00;;;;;;5109960;28;20059;-67
2023/01/28 06:49:04;;;;;;;12.67;7.10;;;5.60;61.90;;;;;;5111298;28;20027;-67
2023/01/28 06:51:29;;;;;;;11.00;6.70;;;5.60;61.90;;;;;;5108821;28;20107;-67
2023/01/28 06:53:55;;;;;;;13.13;7.70;;;5.60;61.80;;;;;;5105945;28;20103;-68
2023/01/28 06:56:21;;;;;;;13.47;7.50;;;5.60;61.70;;;;;;5112559;28;20040;-67
2023/01/28 06:58:47;;;;;;;11.70;7.27;;;5.60;61.80;;;;;;5114910;28;20032;-66
2023/01/28 07:01:13;;;;;;;11.27;6.87;;;5.60;61.80;;;;;;5101359;28;20039;-67
2023/01/28 07:03:38;;;;;;;12.70;7.67;;;5.50;61.70;;;;;;5110399;28;20023;-67
2023/01/28 07:06:04;;;;;;;14.60;7.63;;;5.50;61.70;;;;;;5113867;28;20031;-67
2023/01/28 07:08:30;;;;;;;13.77;8.30;;;5.60;61.90;;;;;;5113920;28;20359;-67
2023/01/28 07:10:56;;;;;;;13.30;7.90;;;5.50;61.80;;;;;;5110442;28;20020;-67
2023/01/28 07:13:22;;;;;;;13.17;8.53;;;5.50;61.90;;;;;;5096010;28;20028;-67
2023/01/28 07:15:48;;;;;;;12.23;7.17;;;5.50;61.90;;;;;;5096636;28;20086;-67
2023/01/28 07:18:14;;;;;;;11.53;7.20;;;5.50;61.90;;;;;;5107863;28;20024;-67
2023/01/28 07:20:39;;;;;;;14.90;7.63;;;5.50;61.80;;;;;;5114367;28;20459;-69
2023/01/28 07:23:05;;;;;;;12.40;7.00;;;5.50;61.80;;;;;;5099309;28;20348;-70
2023/01/28 07:25:31;;;;;;;13.23;7.63;;;5.50;61.80;;;;;;5107317;28;20019;-70
2023/01/28 07:27:57;;;;;;;12.77;7.23;;;5.50;61.80;;;;;;5110615;28;20055;-71
2023/01/28 07:30:23;;;;;;;11.90;7.20;;;5.50;61.80;;;;;;5104176;28;20035;-71
2023/01/28 07:32:56;;;;;;;13.93;8.47;;;5.60;61.90;;;;;;5111869;28;20153;-70
2023/01/28 07:35:23;;;;;;;15.10;8.00;;;5.60;61.80;;;;;;5109962;28;20448;-70
2023/01/28 07:37:56;;;;;;;13.30;8.10;;;5.60;61.80;;;;;;5108935;28;20028;-69
2023/01/28 07:40:23;;;;;;;14.37;7.93;;;5.70;61.80;;;;;;5107928;28;20141;-69
2023/01/28 07:42:49;;;;;;;12.90;8.10;;;5.60;61.70;;;;;;5111698;28;20036;-70
2023/01/28 07:45:15;;;;;;;13.20;8.07;;;5.70;61.70;;;;;;5084333;28;20023;-68
2023/01/28 07:47:41;;;;;;;14.10;7.70;;;5.60;61.60;;;;;;5111756;28;20038;-69
2023/01/28 07:50:09;;;;;;;12.00;7.27;;;5.60;61.70;;;;;;5113027;28;20023;-69
2023/01/28 07:52:43;;;;;;;13.83;8.50;;;5.60;61.60;;;;;;5108844;28;20322;-68
2023/01/28 07:55:11;;;;;;;12.53;7.80;;;5.60;61.70;;;;;;5108010;28;20039;-68
2023/01/28 07:57:37;;;;;;;14.57;8.50;;;5.60;61.70;;;;;;5112968;28;20070;-68
2023/01/28 08:00:03;;;;;;;13.53;8.50;;;5.60;61.70;;;;;;5100518;28;20055;-69
2023/01/28 08:02:37;;;;;;;13.00;7.47;;;5.60;61.70;;;;;;5111902;28;20028;-68
2023/01/28 08:05:03;;;;;;;12.50;8.17;;;5.60;61.70;;;;;;5109990;28;20027;-68
2023/01/28 08:07:29;;;;;;;13.17;8.37;;;5.60;61.60;;;;;;5105979;28;20024;-68
2023/01/28 08:09:55;;;;;;;13.77;8.40;;;5.60;61.70;;;;;;5128663;28;20030;-68
2023/01/28 08:12:20;;;;;;;11.80;7.53;;;5.60;61.70;;;;;;5098794;28;20444;-69
2023/01/28 08:14:46;;;;;;;12.90;7.73;;;5.60;61.70;;;;;;5113019;28;20046;-68
2023/01/28 08:17:12;;;;;;;13.43;7.60;;;5.60;61.70;;;;;;5105644;28;20016;-68
2023/01/28 08:19:38;;;;;;;12.63;7.97;;;5.60;61.70;;;;;;5099748;28;20031;-68
2023/01/28 08:22:03;;;;;;;13.23;8.13;;;5.60;61.70;;;;;;5111200;28;20031;-68
2023/01/28 08:24:29;;;;;;;13.17;7.90;;;5.60;61.80;;;;;;5094571;28;20031;-68
2023/01/28 08:26:55;;;;;;;12.87;7.97;;;5.70;61.90;;;;;;5110035;28;20026;-68
2023/01/28 08:29:20;;;;;;;12.47;7.70;;;5.60;61.80;;;;;;5100203;28;20043;-69
2023/01/28 08:31:46;;;;;;;12.30;7.27;;;5.70;61.90;;;;;;5111981;28;20035;-69
2023/01/28 08:34:12;;;;;;;12.37;7.37;;;5.60;61.80;;;;;;5110669;28;20019;-69
2023/01/28 08:36:37;;;;;;;12.33;8.20;;;5.60;61.90;;;;;;5109837;28;20456;-69
2023/01/28 08:39:04;;;;;;;12.53;7.60;;;5.70;61.90;;;;;;5111052;28;20088;-69
2023/01/28 08:41:30;;;;;;;12.13;7.30;;;5.70;61.90;;;;;;5112382;28;20367;-69
2023/01/28 08:43:56;;;;;;;13.23;7.90;;;5.60;61.80;;;;;;5115514;28;20110;-70
2023/01/28 08:46:22;;;;;;;12.70;7.70;;;5.70;61.80;;;;;;5113900;28;20108;-69
2023/01/28 08:48:50;;;;;;;11.23;7.20;;;5.70;61.80;;;;;;5114978;28;20032;-68
2023/01/28 08:51:16;;;;;;;11.87;7.47;;;5.70;61.90;;;;;;5116832;28;20401;-68
2023/01/28 08:53:41;;;;;;;13.30;8.63;;;5.60;61.80;;;;;;5111283;28;20032;-67
2023/01/28 08:56:07;;;;;;;11.83;7.27;;;5.70;61.90;;;;;;5110193;28;20080;-69
2023/01/28 08:58:33;;;;;;;12.00;7.47;;;5.60;61.90;;;;;;5122269;27;20458;-69
2023/01/28 09:01:04;;;;;;;10.37;6.53;;;5.60;61.90;;;;;;5097769;28;20334;-70
2023/01/28 09:03:30;;;;;;;10.63;6.75;;;5.60;61.90;;;;;;5120929;27;20031;-69
2023/01/28 09:06:01;;;;;;;10.70;6.63;;;5.60;61.80;;;;;;5118480;27;20027;-69
2023/01/28 09:08:27;;;;;;;11.00;6.65;;;5.70;61.90;;;;;;5119242;27;20417;-69
2023/01/28 09:10:57;;;;;;;12.00;7.13;;;5.70;61.90;;;;;;5114122;27;20024;-69
2023/01/28 09:13:23;;;;;;;10.10;6.13;;;5.60;61.80;;;;;;5105612;28;20409;-69
2023/01/28 09:15:50;;;;;;;11.57;7.60;;;5.60;61.80;;;;;;5114478;28;20071;-69
2023/01/28 09:18:17;;;;;;;10.97;6.67;;;5.60;61.80;;;;;;5102838;28;20473;-69
2023/01/28 09:20:42;;;;;;;10.40;5.80;;;5.60;61.80;;;;;;5098695;28;20043;-69
2023/01/28 09:23:09;;;;;;;11.30;7.10;;;5.70;61.80;;;;;;5117191;28;20015;-69
2023/01/28 09:25:35;;;;;;;9.77;6.17;;;5.70;61.80;;;;;;5114028;28;20099;-69
2023/01/28 09:28:02;;;;;;;10.97;6.97;;;5.70;61.70;;;;;;5108890;28;20030;-69
2023/01/28 09:30:28;;;;;;;10.37;6.40;;;5.70;62.00;;;;;;5109544;28;20451;-68
2023/01/28 09:32:56;;;;;;;10.40;6.53;;;5.70;61.70;;;;;;5114175;28;20073;-70
2023/01/28 09:35:23;;;;;;;10.73;6.83;;;5.80;61.80;;;;;;5110783;28;20074;-70
2023/01/28 09:37:50;;;;;;;10.87;6.77;;;5.80;61.80;;;;;;5111815;28;20035;-70
2023/01/28 09:40:26;;;;;;;9.93;6.77;;;5.80;61.80;;;;;;5114625;28;20055;-69
2023/01/28 09:42:59;;;;;;;9.80;6.20;;;5.80;61.80;;;;;;5115398;28;20027;-70
2023/01/28 09:45:37;;;;;;;10.43;6.87;;;5.80;61.80;;;;;;5115738;28;20031;-71
2023/01/28 09:48:09;;;;;;;10.70;6.37;;;5.80;61.70;;;;;;5114610;28;20035;-70
2023/01/28 09:50:37;;;;;;;12.88;6.45;;;5.80;61.60;;;;;;5110618;28;20056;-70
2023/01/28 09:53:12;;;;;;;10.23;6.17;;;5.90;61.60;;;;;;5116122;27;20355;-70
2023/01/28 09:55:43;;;;;;;11.20;6.70;;;5.90;62.30;;;;;;5095603;28;20106;-71
2023/01/28 09:58:14;;;;;;;9.70;5.97;;;5.90;61.70;;;;;;5102249;28;20372;-69
2023/01/28 10:00:46;;;;;;;;;;;5.90;61.70;;;;;;5113391;28;20039;-71
2023/01/28 10:03:27;;;;;;;10.27;6.25;;;5.90;61.80;;;;;;5116055;28;19911;-70
2023/01/28 10:06:13;;;;;;;13.15;7.10;;;5.90;61.70;;;;;;5113729;28;20057;-70
2023/01/28 10:08:41;;;;;;;10.60;6.53;;;6.00;61.70;;;;;;5097721;28;20118;-70
2023/01/28 10:11:15;;;;;;;9.93;6.00;;;5.90;61.60;;;;;;5110818;28;20028;-70
2023/01/28 10:13:50;;;;;;;10.40;6.53;;;6.00;61.60;;;;;;5114625;28;20118;-70
2023/01/28 10:16:21;;;;;;;9.80;5.87;;;6.10;61.60;;;;;;5107243;28;20114;-70
2023/01/28 10:19:29;;;;;;;9.95;6.07;;;6.10;61.50;;;;;;5104658;27;20031;-70
2023/01/28 10:22:01;;;;;;;9.70;5.83;;;6.20;61.20;;;;;;5067115;28;20085;-70
2023/01/28 10:24:43;;;;;;;10.17;6.30;;;6.20;61.10;;;;;;5087405;28;20043;-70
2023/01/28 10:27:18;;;;;;;10.40;6.13;;;6.20;60.90;;;;;;5098396;27;20051;-70
2023/01/28 10:29:46;;;;;;;9.97;6.03;;;6.30;61.00;;;;;;5105009;27;20088;-70
2023/01/28 10:32:35;;;;;;;9.83;5.93;;;6.30;60.90;;;;;;5106520;27;20046;-71
2023/01/28 10:35:02;;;;;;;9.80;6.13;;;6.30;60.60;;;;;;5119027;27;20115;-71
2023/01/28 10:37:35;;;;;;;10.70;6.40;;;6.30;60.70;;;;;;5106427;27;20433;-70
2023/01/28 10:40:03;;;;;;;9.63;6.07;;;6.40;60.70;;;;;;5114067;27;20411;-70
2023/01/28 10:42:32;;;;;;;9.97;5.50;;;6.40;60.60;;;;;;5111145;27;20028;-70
2023/01/28 10:45:22;;;;;;;10.37;6.53;;;6.40;60.50;;;;;;5113686;27;20040;-69
2023/01/28 10:48:12;;;;;;;9.53;5.93;;;6.40;61.10;;;;;;5102195;27;20028;-70
2023/01/28 10:50:55;;;;;;;10.20;6.17;;;6.50;60.50;;;;;;5108953;27;20020;-70
2023/01/28 10:53:37;;;;;;;10.10;5.83;;;6.50;60.50;;;;;;5113281;27;20398;-70
2023/01/28 10:56:06;;;;;;;;;;;6.50;60.50;;;;;;5106374;27;20510;-71
2023/01/28 10:58:35;;;;;;;10.87;5.47;;;6.60;60.60;;;;;;5095791;28;20435;-70
2023/01/28 11:01:06;;;;;;;9.17;4.97;;;6.60;60.40;;;;;;5108376;28;20092;-70
2023/01/28 11:03:34;;;;;;;9.83;5.37;;;6.70;60.30;;;;;;5106240;27;20111;-70
2023/01/28 11:06:01;;;;;;;9.00;5.67;;;6.80;60.20;;;;;;5104546;27;20115;-69
2023/01/28 11:08:28;;;;;;;8.37;4.90;;;6.80;60.00;;;;;;5107868;28;20474;-70
2023/01/28 11:10:56;;;;;;;9.20;5.50;;;6.90;60.00;;;;;;5099828;27;20084;-70
2023/01/28 11:13:24;;;;;;;10.77;6.20;;;7.10;59.90;;;;;;5103929;28;20019;-70
2023/01/28 11:16:15;;;;;;;9.23;6.07;;;7.10;59.60;;;;;;5113023;28;20420;-69
2023/01/28 11:19:04;;;;;;;9.17;5.50;;;7.20;59.50;;;;;;5113897;28;20479;-70
2023/01/28 11:21:31;;;;;;;11.73;6.27;;;7.30;59.50;;;;;;5102555;28;20034;-69
2023/01/28 11:24:01;;;;;;;10.13;5.67;;;7.40;59.30;;;;;;5112644;28;20029;-70
2023/01/28 11:26:36;;;;;;;9.90;6.30;;;7.50;59.20;;;;;;5112165;28;20031;-70
2023/01/28 11:29:02;;;;;;;9.93;5.97;;;7.50;59.10;;;;;;5113758;28;20023;-70
2023/01/28 11:31:36;;;;;;;9.90;5.85;;;7.50;59.10;;;;;;5100516;28;20045;-70
2023/01/28 11:34:04;;;;;;;9.23;5.55;;;7.60;59.10;;;;;;5114270;28;20313;-70
2023/01/28 11:36:33;;;;;;;10.00;5.70;;;7.80;58.90;;;;;;5113290;28;20460;-70
2023/01/28 11:39:04;;;;;;;10.43;6.40;;;7.90;58.60;;;;;;5115343;28;20030;-70
2023/01/28 11:41:35;;;;;;;11.63;6.77;;;8.00;58.40;;;;;;5101914;28;20111;-70
2023/01/28 11:44:25;;;;;;;11.40;6.95;;;8.10;58.20;;;;;;5106082;28;20035;-70
2023/01/28 11:46:54;;;;;;;10.77;6.70;;;8.10;58.00;;;;;;5102935;28;20082;-70
2023/01/28 11:49:31;;;;;;;11.47;7.27;;;8.20;58.00;;;;;;5110205;28;20059;-70
2023/01/28 11:52:17;;;;;;;10.50;6.93;;;8.10;57.80;;;;;;5110116;28;20068;-70
2023/01/28 11:54:52;;;;;;;10.35;6.40;;;8.10;57.80;;;;;;5087290;28;20437;-70
2023/01/28 11:57:30;;;;;;;11.30;7.80;;;8.00;57.90;;;;;;5114234;28;20076;-70
2023/01/28 12:00:18;;;;;;;11.47;6.93;;;7.90;58.00;;;;;;5099703;28;20028;-70
2023/01/28 12:03:00;;;;;;;10.43;6.50;;;7.80;58.10;;;;;;5104151;28;20043;-70
2023/01/28 12:05:42;;;;;;;10.35;6.68;;;7.80;58.30;;;;;;5106957;28;20040;-70
2023/01/28 12:08:29;;;;;;;10.27;6.45;;;7.70;58.30;;;;;;5106186;28;20076;-70
2023/01/28 12:11:20;;;;;;;12.45;6.75;;;7.70;58.30;;;;;;5096044;28;20417;-70
2023/01/28 12:14:17;;;;;;;11.87;7.43;;;7.70;58.30;;;;;;5106927;28;20117;-71
2023/01/28 12:17:07;;;;;;;10.95;7.18;;;7.70;58.20;;;;;;5104360;28;20382;-67
2023/01/28 12:19:44;;;;;;;10.52;6.75;;;7.70;58.20;;;;;;5123561;27;20114;-68
2023/01/28 12:22:25;;;;;;;10.35;6.25;;;7.70;58.20;;;;;;5113670;27;20032;-70
2023/01/28 12:25:30;;;;;;;10.52;6.68;;;7.60;58.20;;;;;;5106839;27;20517;-68
2023/01/28 12:28:13;;;;;;;11.73;6.75;;;7.60;58.20;;;;;;5104875;27;20077;-69
2023/01/28 12:30:48;;;;;;;10.93;6.28;;;7.60;58.20;;;;;;5113953;28;20032;-69
2023/01/28 12:33:45;;;;;;;12.20;7.80;;;7.50;58.30;;;;;;5106167;27;20024;-70
2023/01/28 12:36:29;;;;;;;10.13;6.60;;;7.60;58.30;;;;;;5086804;28;20036;-68
2023/01/28 12:39:19;;;;;;;10.93;6.75;;;7.60;58.20;;;;;;5105480;28;20324;-69
2023/01/28 12:42:05;;;;;;;11.65;6.88;;;7.60;58.20;;;;;;5106787;27;20092;-69
2023/01/28 12:44:36;;;;;;;11.40;6.95;;;7.60;58.90;;;;;;5108680;27;20031;-67
2023/01/28 12:47:15;;;;;;;11.90;7.57;;;7.60;58.30;;;;;;5103312;27;20032;-70
2023/01/28 12:49:47;;;;;;;12.73;7.40;;;7.70;58.20;;;;;;5104247;28;20344;-72
2023/01/28 12:52:19;;;;;;;;;;;7.70;58.20;;;;;;5119593;27;20027;-69
2023/01/28 12:55:10;;;;;;;11.77;6.30;;;7.70;58.30;;;;;;5127584;27;20323;-68
2023/01/28 12:57:36;;;;;;;10.80;6.30;;;7.70;58.20;;;;;;5112758;27;20019;-68
2023/01/28 13:00:14;;;;;;;10.82;6.40;;;7.70;58.20;;;;;;5121985;27;20031;-68
2023/01/28 13:02:46;;;;;;;11.43;6.82;;;7.60;58.20;;;;;;5111608;27;20473;-70
2023/01/28 13:05:14;;;;;;;;;;;7.70;58.20;;;;;;5120923;27;20036;-68
2023/01/28 13:07:55;;;;;;;10.27;5.83;;;7.60;58.30;;;;;;5112496;27;20359;-68
2023/01/28 13:10:20;;;;;;;10.90;6.20;;;7.60;58.20;;;;;;5119498;27;20102;-70
2023/01/28 13:12:47;;;;;;;11.00;6.57;;;7.60;58.30;;;;;;5114612;28;20122;-69
2023/01/28 13:15:16;;;;;;;10.93;6.83;;;7.70;58.40;;;;;;5106515;28;20031;-69
2023/01/28 13:17:56;;;;;;;11.80;6.68;;;7.70;58.30;;;;;;5124786;27;20038;-71
2023/01/28 13:20:38;;;;;;;11.50;6.43;;;7.70;58.20;;;;;;5111603;27;20029;-69
2023/01/28 13:23:20;;;;;;;10.55;6.20;;;7.60;58.30;;;;;;5107379;27;20036;-69
2023/01/28 13:25:54;;;;;;;11.37;6.87;;;7.60;58.40;;;;;;5086654;28;20539;-69
2023/01/28 13:28:32;;;;;;;11.53;7.13;;;7.60;58.30;;;;;;5086040;28;20019;-70
2023/01/28 13:31:07;;;;;;;10.90;6.40;;;7.50;58.40;;;;;;5097123;28;20119;-70
2023/01/28 13:33:38;;;;;;;10.70;6.70;;;7.50;58.50;;;;;;5095322;28;20122;-70
2023/01/28 13:36:24;;;;;;;10.60;6.47;;;7.40;58.60;;;;;;5092651;28;20031;-70
2023/01/28 13:39:14;;;;;;;10.73;6.77;;;7.40;58.60;;;;;;5117504;27;20066;-70
2023/01/28 13:41:44;;;;;;;13.10;6.87;;;7.30;58.70;;;;;;5112294;27;20432;-71